N960 KCSG-KATL
Flight info
| Callsign | N960 |
|---|---|
| Flight time | 0h 26m |
| Altitude | 17000 |
| Route | HOBTT HOBTT3 |
| Aircraft | C25C/M-BGS/L |
Departure
| Time | 2026-05-06 16:37 |
|---|---|
| Airport | Columbus Airport (KCSG) |
Arrival
| Time | 2026-05-06 17:04 |
|---|---|
| Airport | Hartsfield Jackson Atlanta International Airport (KATL) |
| Time | Latitude | Longitude | Altitude | Speed | Heading |
|---|---|---|---|---|---|
| 2026-05-06 16:23 | 32.51800 | -84.94521 | 394 ft | 0 kts | 211° |
| 2026-05-06 16:33 | 32.51800 | -84.94522 | 394 ft | 1 kts | 214° |
| 2026-05-06 16:33 | 32.51813 | -84.94521 | 394 ft | 8 kts | 102° |
| 2026-05-06 16:34 | 32.51642 | -84.94365 | 387 ft | 32 kts | 127° |
| 2026-05-06 16:34 | 32.51515 | -84.94150 | 379 ft | 22 kts | 89° |
| 2026-05-06 16:34 | 32.51590 | -84.93989 | 378 ft | 23 kts | 53° |
| 2026-05-06 16:34 | 32.51686 | -84.93832 | 378 ft | 25 kts | 53° |
| 2026-05-06 16:35 | 32.51791 | -84.93670 | 382 ft | 24 kts | 53° |
| 2026-05-06 16:35 | 32.51893 | -84.93506 | 383 ft | 25 kts | 54° |
| 2026-05-06 16:35 | 32.51995 | -84.93338 | 386 ft | 25 kts | 54° |
| 2026-05-06 16:35 | 32.52100 | -84.93164 | 387 ft | 26 kts | 54° |
| 2026-05-06 16:36 | 32.52213 | -84.92984 | 387 ft | 28 kts | 54° |
| 2026-05-06 16:36 | 32.52315 | -84.92799 | 391 ft | 22 kts | 89° |
| 2026-05-06 16:36 | 32.52213 | -84.92769 | 391 ft | 21 kts | 232° |
| 2026-05-06 16:36 | 32.52024 | -84.93069 | 390 ft | 80 kts | 233° |
| 2026-05-06 16:37 | 32.51566 | -84.93811 | 448 ft | 133 kts | 234° |
| 2026-05-06 16:37 | 32.51006 | -84.94781 | 804 ft | 153 kts | 244° |
| 2026-05-06 16:37 | 32.50791 | -84.96059 | 1343 ft | 168 kts | 274° |
| 2026-05-06 16:37 | 32.51290 | -84.97334 | 1798 ft | 184 kts | 311° |
| 2026-05-06 16:38 | 32.52351 | -84.98243 | 2237 ft | 195 kts | 326° |
| 2026-05-06 16:38 | 32.53554 | -84.99003 | 2768 ft | 201 kts | 335° |
| 2026-05-06 16:38 | 32.54981 | -84.99282 | 3228 ft | 211 kts | 360° |
| 2026-05-06 16:38 | 32.56430 | -84.99179 | 3723 ft | 212 kts | 358° |
| 2026-05-06 16:39 | 32.57986 | -84.99156 | 3987 ft | 238 kts | 359° |
| 2026-05-06 16:39 | 32.59685 | -84.99108 | 4579 ft | 246 kts | 359° |
| 2026-05-06 16:39 | 32.61451 | -84.99032 | 5066 ft | 257 kts | 359° |
| 2026-05-06 16:39 | 32.63182 | -84.98999 | 6109 ft | 237 kts | 353° |
| 2026-05-06 16:40 | 32.64848 | -84.99133 | 6701 ft | 247 kts | 353° |
| 2026-05-06 16:40 | 32.66603 | -84.99163 | 7211 ft | 254 kts | 356° |
| 2026-05-06 16:40 | 32.68351 | -84.99120 | 7943 ft | 250 kts | 357° |
| 2026-05-06 16:40 | 32.70136 | -84.99096 | 8274 ft | 266 kts | 354° |
| 2026-05-06 16:41 | 32.72046 | -84.99204 | 8549 ft | 280 kts | 352° |
| 2026-05-06 16:41 | 32.73979 | -84.99437 | 9097 ft | 279 kts | 345° |
| 2026-05-06 16:41 | 32.75845 | -84.99987 | 9606 ft | 281 kts | 342° |
| 2026-05-06 16:41 | 32.77794 | -85.00342 | 10109 ft | 287 kts | 351° |
| 2026-05-06 16:42 | 32.79805 | -85.00388 | 10578 ft | 290 kts | 355° |
| 2026-05-06 16:42 | 32.81824 | -85.00403 | 11053 ft | 290 kts | 353° |
| 2026-05-06 16:42 | 32.83836 | -85.00490 | 11534 ft | 290 kts | 352° |
| 2026-05-06 16:42 | 32.85831 | -85.00600 | 12015 ft | 287 kts | 352° |
| 2026-05-06 16:43 | 32.87838 | -85.00694 | 12510 ft | 291 kts | 352° |
| 2026-05-06 16:43 | 32.89873 | -85.00784 | 13014 ft | 295 kts | 352° |
| 2026-05-06 16:43 | 32.91937 | -85.00804 | 13512 ft | 302 kts | 1° |
| 2026-05-06 16:43 | 32.93973 | -85.00037 | 13978 ft | 312 kts | 15° |
| 2026-05-06 16:44 | 32.96069 | -84.99186 | 14094 ft | 323 kts | 13° |
| 2026-05-06 16:44 | 32.98209 | -84.98282 | 14112 ft | 326 kts | 15° |
| 2026-05-06 16:44 | 33.00327 | -84.97359 | 14118 ft | 322 kts | 15° |
| 2026-05-06 16:44 | 33.02427 | -84.96450 | 14116 ft | 319 kts | 14° |
| 2026-05-06 16:45 | 33.04518 | -84.95566 | 14117 ft | 317 kts | 14° |
| 2026-05-06 16:45 | 33.06563 | -84.94693 | 14072 ft | 317 kts | 14° |
| 2026-05-06 16:45 | 33.08678 | -84.93788 | 13999 ft | 320 kts | 15° |
| 2026-05-06 16:45 | 33.10740 | -84.92901 | 14001 ft | 319 kts | 15° |
| 2026-05-06 16:46 | 33.12827 | -84.92007 | 14001 ft | 319 kts | 14° |
| 2026-05-06 16:46 | 33.14911 | -84.91116 | 13994 ft | 318 kts | 15° |
| 2026-05-06 16:46 | 33.16989 | -84.90221 | 13988 ft | 316 kts | 14° |
| 2026-05-06 16:46 | 33.19057 | -84.89335 | 13989 ft | 315 kts | 15° |
| 2026-05-06 16:47 | 33.21119 | -84.88449 | 13989 ft | 314 kts | 14° |
| 2026-05-06 16:47 | 33.23172 | -84.87569 | 13993 ft | 312 kts | 15° |
| 2026-05-06 16:47 | 33.25165 | -84.86708 | 13632 ft | 299 kts | 14° |
| 2026-05-06 16:47 | 33.27104 | -84.85873 | 13141 ft | 293 kts | 15° |
| 2026-05-06 16:48 | 33.29006 | -84.85060 | 12654 ft | 288 kts | 15° |
| 2026-05-06 16:48 | 33.30877 | -84.84253 | 12188 ft | 285 kts | 15° |
| 2026-05-06 16:48 | 33.32680 | -84.83342 | 12014 ft | 276 kts | 24° |
| 2026-05-06 16:48 | 33.34331 | -84.82288 | 11985 ft | 262 kts | 22° |
| 2026-05-06 16:49 | 33.35906 | -84.81336 | 11977 ft | 251 kts | 22° |
| 2026-05-06 16:49 | 33.37425 | -84.80409 | 11977 ft | 239 kts | 22° |
| 2026-05-06 16:49 | 33.38869 | -84.79513 | 11978 ft | 229 kts | 22° |
| 2026-05-06 16:49 | 33.40257 | -84.78657 | 11976 ft | 221 kts | 22° |
| 2026-05-06 16:50 | 33.41609 | -84.77821 | 11977 ft | 217 kts | 21° |
| 2026-05-06 16:50 | 33.42942 | -84.76998 | 11976 ft | 215 kts | 22° |
| 2026-05-06 16:50 | 33.44289 | -84.76170 | 11975 ft | 220 kts | 22° |
| 2026-05-06 16:50 | 33.45213 | -84.75597 | 11972 ft | 223 kts | 22° |
| 2026-05-06 16:51 | 33.47057 | -84.74457 | 11975 ft | 227 kts | 22° |
| 2026-05-06 16:51 | 33.48473 | -84.73579 | 11979 ft | 230 kts | 22° |
| 2026-05-06 16:51 | 33.49902 | -84.72692 | 11981 ft | 232 kts | 22° |
| 2026-05-06 16:51 | 33.51347 | -84.71799 | 11985 ft | 234 kts | 22° |
| 2026-05-06 16:52 | 33.52784 | -84.70859 | 11977 ft | 239 kts | 33° |
| 2026-05-06 16:52 | 33.53983 | -84.69397 | 11764 ft | 253 kts | 47° |
| 2026-05-06 16:52 | 33.55135 | -84.67740 | 11518 ft | 266 kts | 47° |
| 2026-05-06 16:52 | 33.56378 | -84.66038 | 11180 ft | 281 kts | 46° |
| 2026-05-06 16:53 | 33.57719 | -84.64275 | 10843 ft | 292 kts | 46° |
| 2026-05-06 16:53 | 33.59103 | -84.62447 | 10514 ft | 299 kts | 46° |
| 2026-05-06 16:53 | 33.60502 | -84.60577 | 10186 ft | 303 kts | 47° |
| 2026-05-06 16:53 | 33.61917 | -84.58684 | 9845 ft | 306 kts | 47° |
| 2026-05-06 16:54 | 33.63347 | -84.56772 | 9474 ft | 308 kts | 47° |
| 2026-05-06 16:54 | 33.64784 | -84.54855 | 9105 ft | 310 kts | 47° |
| 2026-05-06 16:54 | 33.65759 | -84.53555 | 8856 ft | 310 kts | 47° |
| 2026-05-06 16:54 | 33.67668 | -84.50996 | 8367 ft | 310 kts | 47° |
| 2026-05-06 16:55 | 33.69109 | -84.49072 | 8001 ft | 309 kts | 48° |
| 2026-05-06 16:55 | 33.70540 | -84.47147 | 7642 ft | 307 kts | 48° |
| 2026-05-06 16:55 | 33.71962 | -84.45252 | 7281 ft | 303 kts | 49° |
| 2026-05-06 16:55 | 33.73044 | -84.43132 | 6982 ft | 296 kts | 74° |
| 2026-05-06 16:56 | 33.73323 | -84.40741 | 6747 ft | 286 kts | 91° |
| 2026-05-06 16:56 | 33.73343 | -84.38374 | 6510 ft | 280 kts | 94° |
| 2026-05-06 16:56 | 33.73299 | -84.36053 | 6254 ft | 273 kts | 95° |
| 2026-05-06 16:56 | 33.73287 | -84.33803 | 5876 ft | 265 kts | 92° |
| 2026-05-06 16:57 | 33.73296 | -84.31630 | 5481 ft | 256 kts | 93° |
| 2026-05-06 16:57 | 33.73296 | -84.29549 | 5107 ft | 250 kts | 93° |
| 2026-05-06 16:57 | 33.73299 | -84.27457 | 4722 ft | 244 kts | 93° |
| 2026-05-06 16:57 | 33.73301 | -84.25465 | 4347 ft | 240 kts | 93° |
| 2026-05-06 16:58 | 33.72946 | -84.23591 | 4140 ft | 213 kts | 123° |
| 2026-05-06 16:58 | 33.72009 | -84.22442 | 4042 ft | 180 kts | 154° |
| 2026-05-06 16:58 | 33.70830 | -84.22203 | 3779 ft | 168 kts | 186° |
| 2026-05-06 16:58 | 33.69709 | -84.22293 | 3647 ft | 158 kts | 184° |
| 2026-05-06 16:59 | 33.68618 | -84.22360 | 3407 ft | 157 kts | 183° |
| 2026-05-06 16:59 | 33.67523 | -84.22433 | 3156 ft | 155 kts | 187° |
| 2026-05-06 16:59 | 33.66607 | -84.23024 | 3039 ft | 151 kts | 225° |
| 2026-05-06 16:59 | 33.66168 | -84.24200 | 2759 ft | 157 kts | 246° |
| 2026-05-06 17:00 | 33.65798 | -84.25409 | 2592 ft | 151 kts | 245° |
| 2026-05-06 17:00 | 33.65564 | -84.26190 | 2514 ft | 150 kts | 244° |
| 2026-05-06 17:00 | 33.65239 | -84.27386 | 2370 ft | 151 kts | 250° |
| 2026-05-06 17:00 | 33.65080 | -84.28643 | 2173 ft | 153 kts | 259° |
| 2026-05-06 17:01 | 33.65057 | -84.29921 | 1996 ft | 153 kts | 264° |
| 2026-05-06 17:01 | 33.65047 | -84.31184 | 1910 ft | 148 kts | 262° |
| 2026-05-06 17:01 | 33.65015 | -84.32381 | 1757 ft | 139 kts | 262° |
| 2026-05-06 17:01 | 33.64980 | -84.33498 | 1628 ft | 131 kts | 262° |
| 2026-05-06 17:02 | 33.64969 | -84.34560 | 1631 ft | 122 kts | 264° |
| 2026-05-06 17:02 | 33.64981 | -84.35550 | 1529 ft | 115 kts | 265° |
| 2026-05-06 17:02 | 33.64958 | -84.36504 | 1311 ft | 115 kts | 266° |
| 2026-05-06 17:02 | 33.64960 | -84.37454 | 1231 ft | 113 kts | 268° |
| 2026-05-06 17:03 | 33.64967 | -84.38399 | 1207 ft | 109 kts | 265° |
| 2026-05-06 17:03 | 33.64968 | -84.39293 | 1161 ft | 110 kts | 269° |
| 2026-05-06 17:03 | 33.64954 | -84.40183 | 1105 ft | 106 kts | 268° |
| 2026-05-06 17:03 | 33.64952 | -84.41076 | 1013 ft | 108 kts | 270° |
| 2026-05-06 17:04 | 33.64953 | -84.41948 | 1000 ft | 91 kts | 270° |
| 2026-05-06 17:04 | 33.64993 | -84.42326 | 1001 ft | 22 kts | 333° |
| 2026-05-06 17:04 | 33.65053 | -84.42368 | 1001 ft | 0 kts | 296° |
| 2026-05-06 17:04 | 33.65062 | -84.42404 | 1001 ft | 15 kts | 280° |
| 2026-05-06 17:05 | 33.65089 | -84.42577 | 1000 ft | 23 kts | 328° |
| 2026-05-06 17:05 | 33.65235 | -84.42617 | 1000 ft | 9 kts | 358° |
| 2026-05-06 17:05 | 33.65238 | -84.42617 | 1000 ft | 0 kts | 359° |